sensor_id;sensor_type;location;lat;lon;timestamp;P1;durP1;ratioP1;P2;durP2;ratioP2
67640;SDS011;54434;50.096;20.082;2023-07-20T00:01:00;13.10;;;5.70;;
67640;SDS011;54434;50.096;20.082;2023-07-20T00:03:38;10.70;;;5.80;;
67640;SDS011;54434;50.096;20.082;2023-07-20T00:06:15;11.40;;;5.40;;
67640;SDS011;54434;50.096;20.082;2023-07-20T00:08:51;11.80;;;5.70;;
67640;SDS011;54434;50.096;20.082;2023-07-20T00:11:29;9.70;;;5.60;;
67640;SDS011;54434;50.096;20.082;2023-07-20T00:14:06;13.80;;;6.00;;
67640;SDS011;54434;50.096;20.082;2023-07-20T00:16:42;13.40;;;5.70;;
67640;SDS011;54434;50.096;20.082;2023-07-20T00:19:19;11.70;;;5.60;;
67640;SDS011;54434;50.096;20.082;2023-07-20T00:21:56;11.50;;;5.50;;
67640;SDS011;54434;50.096;20.082;2023-07-20T00:24:33;11.00;;;5.80;;
67640;SDS011;54434;50.096;20.082;2023-07-20T00:27:10;12.60;;;6.20;;
67640;SDS011;54434;50.096;20.082;2023-07-20T00:29:46;11.10;;;6.00;;
67640;SDS011;54434;50.096;20.082;2023-07-20T00:32:22;11.50;;;5.70;;
67640;SDS011;54434;50.096;20.082;2023-07-20T00:34:59;12.90;;;5.70;;
67640;SDS011;54434;50.096;20.082;2023-07-20T00:37:36;13.40;;;5.90;;
67640;SDS011;54434;50.096;20.082;2023-07-20T00:40:14;11.30;;;6.10;;
67640;SDS011;54434;50.096;20.082;2023-07-20T00:42:51;12.70;;;5.90;;
67640;SDS011;54434;50.096;20.082;2023-07-20T00:45:30;10.10;;;5.90;;
67640;SDS011;54434;50.096;20.082;2023-07-20T00:48:09;10.70;;;6.00;;
67640;SDS011;54434;50.096;20.082;2023-07-20T00:50:47;11.40;;;5.60;;
67640;SDS011;54434;50.096;20.082;2023-07-20T00:53:24;11.50;;;6.30;;
67640;SDS011;54434;50.096;20.082;2023-07-20T00:56:01;11.90;;;5.90;;
67640;SDS011;54434;50.096;20.082;2023-07-20T00:58:39;13.10;;;5.80;;
67640;SDS011;54434;50.096;20.082;2023-07-20T01:01:15;11.30;;;5.90;;
67640;SDS011;54434;50.096;20.082;2023-07-20T01:03:53;11.60;;;5.70;;
67640;SDS011;54434;50.096;20.082;2023-07-20T01:06:41;10.10;;;6.20;;
67640;SDS011;54434;50.096;20.082;2023-07-20T01:09:28;13.30;;;6.20;;
67640;SDS011;54434;50.096;20.082;2023-07-20T01:12:21;12.50;;;5.90;;
67640;SDS011;54434;50.096;20.082;2023-07-20T01:15:01;9.90;;;6.00;;
67640;SDS011;54434;50.096;20.082;2023-07-20T01:17:41;9.80;;;5.70;;
67640;SDS011;54434;50.096;20.082;2023-07-20T01:20:20;10.30;;;5.30;;
67640;SDS011;54434;50.096;20.082;2023-07-20T01:23:37;12.80;;;5.70;;
67640;SDS011;54434;50.096;20.082;2023-07-20T01:26:53;11.80;;;5.60;;
67640;SDS011;54434;50.096;20.082;2023-07-20T01:33:01;9.50;;;5.40;;
67640;SDS011;54434;50.096;20.082;2023-07-20T01:35:39;8.80;;;4.80;;
67640;SDS011;54434;50.096;20.082;2023-07-20T01:38:20;11.30;;;5.50;;
67640;SDS011;54434;50.096;20.082;2023-07-20T01:40:58;11.10;;;5.20;;
67640;SDS011;54434;50.096;20.082;2023-07-20T01:43:36;7.70;;;5.20;;
67640;SDS011;54434;50.096;20.082;2023-07-20T01:46:12;9.70;;;5.30;;
67640;SDS011;54434;50.096;20.082;2023-07-20T01:48:49;9.10;;;5.10;;
67640;SDS011;54434;50.096;20.082;2023-07-20T01:51:26;9.10;;;4.50;;
67640;SDS011;54434;50.096;20.082;2023-07-20T01:54:02;7.70;;;4.60;;
67640;SDS011;54434;50.096;20.082;2023-07-20T01:56:38;8.80;;;4.40;;
67640;SDS011;54434;50.096;20.082;2023-07-20T01:59:15;10.10;;;4.60;;
67640;SDS011;54434;50.096;20.082;2023-07-20T02:01:51;7.60;;;4.60;;
67640;SDS011;54434;50.096;20.082;2023-07-20T02:04:28;12.90;;;4.30;;
67640;SDS011;54434;50.096;20.082;2023-07-20T02:07:05;9.70;;;4.50;;
67640;SDS011;54434;50.096;20.082;2023-07-20T02:09:42;11.00;;;4.70;;
67640;SDS011;54434;50.096;20.082;2023-07-20T02:12:19;11.70;;;4.40;;
67640;SDS011;54434;50.096;20.082;2023-07-20T02:14:56;8.40;;;4.20;;
67640;SDS011;54434;50.096;20.082;2023-07-20T02:17:32;8.90;;;4.50;;
67640;SDS011;54434;50.096;20.082;2023-07-20T02:20:11;9.60;;;4.00;;
67640;SDS011;54434;50.096;20.082;2023-07-20T02:22:47;8.70;;;4.20;;
67640;SDS011;54434;50.096;20.082;2023-07-20T02:25:24;9.40;;;4.00;;
67640;SDS011;54434;50.096;20.082;2023-07-20T02:28:00;7.00;;;3.90;;
67640;SDS011;54434;50.096;20.082;2023-07-20T02:30:39;7.80;;;4.00;;
67640;SDS011;54434;50.096;20.082;2023-07-20T02:33:15;9.30;;;4.30;;
67640;SDS011;54434;50.096;20.082;2023-07-20T02:35:51;8.10;;;3.80;;
67640;SDS011;54434;50.096;20.082;2023-07-20T02:38:28;8.60;;;4.20;;
67640;SDS011;54434;50.096;20.082;2023-07-20T02:41:05;8.40;;;4.10;;
67640;SDS011;54434;50.096;20.082;2023-07-20T02:43:41;9.40;;;4.50;;
67640;SDS011;54434;50.096;20.082;2023-07-20T02:46:17;8.00;;;4.30;;
67640;SDS011;54434;50.096;20.082;2023-07-20T02:48:54;9.40;;;4.50;;
67640;SDS011;54434;50.096;20.082;2023-07-20T02:51:30;8.00;;;4.40;;
67640;SDS011;54434;50.096;20.082;2023-07-20T02:54:07;8.40;;;4.60;;
67640;SDS011;54434;50.096;20.082;2023-07-20T02:56:43;12.80;;;4.40;;
67640;SDS011;54434;50.096;20.082;2023-07-20T02:59:20;8.80;;;4.20;;
67640;SDS011;54434;50.096;20.082;2023-07-20T03:01:56;9.00;;;4.30;;
67640;SDS011;54434;50.096;20.082;2023-07-20T03:04:33;7.90;;;4.10;;
67640;SDS011;54434;50.096;20.082;2023-07-20T03:07:10;11.70;;;4.60;;
67640;SDS011;54434;50.096;20.082;2023-07-20T03:09:46;8.70;;;4.40;;
67640;SDS011;54434;50.096;20.082;2023-07-20T03:12:23;10.50;;;4.20;;
67640;SDS011;54434;50.096;20.082;2023-07-20T03:15:00;9.20;;;4.10;;
67640;SDS011;54434;50.096;20.082;2023-07-20T03:17:37;11.70;;;4.40;;
67640;SDS011;54434;50.096;20.082;2023-07-20T03:20:15;9.00;;;4.20;;
67640;SDS011;54434;50.096;20.082;2023-07-20T03:22:51;10.00;;;4.30;;
67640;SDS011;54434;50.096;20.082;2023-07-20T03:25:28;8.50;;;4.30;;
67640;SDS011;54434;50.096;20.082;2023-07-20T03:28:04;8.70;;;4.00;;
67640;SDS011;54434;50.096;20.082;2023-07-20T03:30:41;7.80;;;4.40;;
67640;SDS011;54434;50.096;20.082;2023-07-20T03:33:18;8.70;;;4.00;;
67640;SDS011;54434;50.096;20.082;2023-07-20T03:35:55;11.70;;;4.10;;
67640;SDS011;54434;50.096;20.082;2023-07-20T03:38:32;10.00;;;4.00;;
67640;SDS011;54434;50.096;20.082;2023-07-20T03:41:08;11.60;;;4.20;;
67640;SDS011;54434;50.096;20.082;2023-07-20T03:43:45;13.10;;;4.10;;
67640;SDS011;54434;50.096;20.082;2023-07-20T03:46:21;10.60;;;3.90;;
67640;SDS011;54434;50.096;20.082;2023-07-20T03:48:58;12.40;;;5.50;;
67640;SDS011;54434;50.096;20.082;2023-07-20T03:51:35;10.80;;;4.20;;
67640;SDS011;54434;50.096;20.082;2023-07-20T03:54:11;11.60;;;4.40;;
67640;SDS011;54434;50.096;20.082;2023-07-20T03:56:47;9.30;;;4.70;;
67640;SDS011;54434;50.096;20.082;2023-07-20T03:59:24;9.40;;;4.80;;
67640;SDS011;54434;50.096;20.082;2023-07-20T04:02:01;8.30;;;4.10;;
67640;SDS011;54434;50.096;20.082;2023-07-20T04:04:40;10.00;;;4.40;;
67640;SDS011;54434;50.096;20.082;2023-07-20T04:07:16;7.40;;;4.50;;
67640;SDS011;54434;50.096;20.082;2023-07-20T04:09:53;9.80;;;4.50;;
67640;SDS011;54434;50.096;20.082;2023-07-20T04:12:29;9.10;;;4.40;;
67640;SDS011;54434;50.096;20.082;2023-07-20T04:15:08;9.50;;;4.80;;
67640;SDS011;54434;50.096;20.082;2023-07-20T04:17:47;8.90;;;4.40;;
67640;SDS011;54434;50.096;20.082;2023-07-20T04:20:23;20.40;;;10.60;;
67640;SDS011;54434;50.096;20.082;2023-07-20T04:23:00;9.20;;;4.60;;
67640;SDS011;54434;50.096;20.082;2023-07-20T04:25:36;8.10;;;4.30;;
67640;SDS011;54434;50.096;20.082;2023-07-20T04:28:17;8.20;;;4.50;;
67640;SDS011;54434;50.096;20.082;2023-07-20T04:30:55;9.20;;;4.70;;
67640;SDS011;54434;50.096;20.082;2023-07-20T04:33:43;10.20;;;4.70;;
67640;SDS011;54434;50.096;20.082;2023-07-20T04:36:21;12.40;;;6.90;;
67640;SDS011;54434;50.096;20.082;2023-07-20T04:38:59;9.90;;;4.40;;
67640;SDS011;54434;50.096;20.082;2023-07-20T04:41:43;8.00;;;4.40;;
67640;SDS011;54434;50.096;20.082;2023-07-20T04:44:20;9.00;;;4.60;;
67640;SDS011;54434;50.096;20.082;2023-07-20T04:46:58;11.80;;;4.50;;
67640;SDS011;54434;50.096;20.082;2023-07-20T04:49:36;11.30;;;4.40;;
67640;SDS011;54434;50.096;20.082;2023-07-20T04:52:12;8.20;;;4.10;;
67640;SDS011;54434;50.096;20.082;2023-07-20T04:54:50;8.30;;;3.90;;
67640;SDS011;54434;50.096;20.082;2023-07-20T04:57:26;8.40;;;3.60;;
67640;SDS011;54434;50.096;20.082;2023-07-20T05:00:03;6.50;;;3.90;;
67640;SDS011;54434;50.096;20.082;2023-07-20T05:02:43;9.30;;;4.00;;
67640;SDS011;54434;50.096;20.082;2023-07-20T05:05:21;7.80;;;3.90;;
67640;SDS011;54434;50.096;20.082;2023-07-20T05:07:58;7.00;;;3.30;;
67640;SDS011;54434;50.096;20.082;2023-07-20T05:10:34;7.40;;;3.70;;
67640;SDS011;54434;50.096;20.082;2023-07-20T05:13:11;8.00;;;3.40;;
67640;SDS011;54434;50.096;20.082;2023-07-20T05:15:50;8.30;;;3.60;;
67640;SDS011;54434;50.096;20.082;2023-07-20T05:18:27;9.60;;;3.40;;
67640;SDS011;54434;50.096;20.082;2023-07-20T05:21:06;7.80;;;3.20;;
67640;SDS011;54434;50.096;20.082;2023-07-20T05:23:43;5.40;;;3.00;;
67640;SDS011;54434;50.096;20.082;2023-07-20T05:26:20;6.70;;;3.30;;
67640;SDS011;54434;50.096;20.082;2023-07-20T05:28:57;8.30;;;3.70;;
67640;SDS011;54434;50.096;20.082;2023-07-20T05:31:33;6.50;;;3.30;;
67640;SDS011;54434;50.096;20.082;2023-07-20T05:34:10;7.20;;;3.20;;
67640;SDS011;54434;50.096;20.082;2023-07-20T05:37:14;6.70;;;3.40;;
67640;SDS011;54434;50.096;20.082;2023-07-20T05:39:51;8.00;;;3.50;;
67640;SDS011;54434;50.096;20.082;2023-07-20T05:42:27;7.10;;;3.30;;
67640;SDS011;54434;50.096;20.082;2023-07-20T05:45:05;5.70;;;3.10;;
67640;SDS011;54434;50.096;20.082;2023-07-20T05:47:42;7.30;;;3.00;;
67640;SDS011;54434;50.096;20.082;2023-07-20T05:50:19;5.70;;;2.90;;
67640;SDS011;54434;50.096;20.082;2023-07-20T05:52:56;6.50;;;3.10;;
67640;SDS011;54434;50.096;20.082;2023-07-20T05:55:33;6.30;;;2.80;;
67640;SDS011;54434;50.096;20.082;2023-07-20T05:58:09;7.20;;;3.00;;
67640;SDS011;54434;50.096;20.082;2023-07-20T06:00:45;6.90;;;3.00;;
67640;SDS011;54434;50.096;20.082;2023-07-20T06:03:24;6.10;;;2.70;;
67640;SDS011;54434;50.096;20.082;2023-07-20T06:06:02;6.30;;;2.90;;
67640;SDS011;54434;50.096;20.082;2023-07-20T06:08:39;4.90;;;2.70;;
67640;SDS011;54434;50.096;20.082;2023-07-20T06:11:16;5.30;;;2.90;;
67640;SDS011;54434;50.096;20.082;2023-07-20T06:13:52;6.70;;;3.10;;
67640;SDS011;54434;50.096;20.082;2023-07-20T06:16:29;6.30;;;2.60;;
67640;SDS011;54434;50.096;20.082;2023-07-20T06:19:05;9.00;;;2.70;;
67640;SDS011;54434;50.096;20.082;2023-07-20T06:21:44;4.70;;;2.60;;
67640;SDS011;54434;50.096;20.082;2023-07-20T06:24:21;5.20;;;2.80;;
67640;SDS011;54434;50.096;20.082;2023-07-20T06:26:57;8.20;;;2.60;;
67640;SDS011;54434;50.096;20.082;2023-07-20T06:29:34;6.00;;;2.60;;
67640;SDS011;54434;50.096;20.082;2023-07-20T06:32:11;4.30;;;2.60;;
67640;SDS011;54434;50.096;20.082;2023-07-20T06:34:47;4.20;;;2.60;;
67640;SDS011;54434;50.096;20.082;2023-07-20T06:37:24;5.50;;;2.50;;
67640;SDS011;54434;50.096;20.082;2023-07-20T06:40:00;5.50;;;2.70;;
67640;SDS011;54434;50.096;20.082;2023-07-20T06:42:40;6.50;;;2.70;;
67640;SDS011;54434;50.096;20.082;2023-07-20T06:45:20;8.00;;;2.60;;
67640;SDS011;54434;50.096;20.082;2023-07-20T06:47:56;5.30;;;2.70;;
67640;SDS011;54434;50.096;20.082;2023-07-20T06:50:33;8.60;;;2.70;;
67640;SDS011;54434;50.096;20.082;2023-07-20T06:53:10;5.50;;;2.40;;
67640;SDS011;54434;50.096;20.082;2023-07-20T06:55:46;5.50;;;2.40;;
67640;SDS011;54434;50.096;20.082;2023-07-20T06:58:23;7.10;;;2.70;;
67640;SDS011;54434;50.096;20.082;2023-07-20T07:01:03;7.30;;;2.70;;
67640;SDS011;54434;50.096;20.082;2023-07-20T07:03:41;9.10;;;2.50;;
67640;SDS011;54434;50.096;20.082;2023-07-20T07:06:18;5.50;;;2.70;;
67640;SDS011;54434;50.096;20.082;2023-07-20T07:08:57;7.80;;;2.80;;
67640;SDS011;54434;50.096;20.082;2023-07-20T07:11:33;4.60;;;2.50;;
67640;SDS011;54434;50.096;20.082;2023-07-20T07:14:09;7.70;;;3.00;;
67640;SDS011;54434;50.096;20.082;2023-07-20T07:16:46;3.80;;;2.20;;
67640;SDS011;54434;50.096;20.082;2023-07-20T07:19:24;4.80;;;2.40;;
67640;SDS011;54434;50.096;20.082;2023-07-20T07:22:01;9.70;;;2.70;;
67640;SDS011;54434;50.096;20.082;2023-07-20T07:24:37;5.00;;;2.50;;
67640;SDS011;54434;50.096;20.082;2023-07-20T07:27:15;5.10;;;2.50;;
67640;SDS011;54434;50.096;20.082;2023-07-20T07:29:51;6.60;;;2.80;;
67640;SDS011;54434;50.096;20.082;2023-07-20T07:32:28;6.30;;;2.60;;
67640;SDS011;54434;50.096;20.082;2023-07-20T07:35:06;6.50;;;2.60;;
67640;SDS011;54434;50.096;20.082;2023-07-20T07:37:43;8.00;;;2.60;;
67640;SDS011;54434;50.096;20.082;2023-07-20T07:40:38;5.60;;;2.80;;
67640;SDS011;54434;50.096;20.082;2023-07-20T07:43:15;7.80;;;3.10;;
67640;SDS011;54434;50.096;20.082;2023-07-20T07:45:54;5.80;;;2.80;;
67640;SDS011;54434;50.096;20.082;2023-07-20T07:48:31;7.10;;;2.80;;
67640;SDS011;54434;50.096;20.082;2023-07-20T07:51:08;5.50;;;2.60;;
67640;SDS011;54434;50.096;20.082;2023-07-20T07:53:47;6.20;;;2.80;;
67640;SDS011;54434;50.096;20.082;2023-07-20T07:56:23;15.10;;;3.80;;
67640;SDS011;54434;50.096;20.082;2023-07-20T07:59:00;7.30;;;2.70;;
67640;SDS011;54434;50.096;20.082;2023-07-20T08:01:36;6.70;;;2.90;;
67640;SDS011;54434;50.096;20.082;2023-07-20T08:04:12;5.80;;;2.70;;
67640;SDS011;54434;50.096;20.082;2023-07-20T08:06:49;7.70;;;3.00;;
67640;SDS011;54434;50.096;20.082;2023-07-20T08:09:26;5.40;;;2.80;;
67640;SDS011;54434;50.096;20.082;2023-07-20T08:12:02;5.70;;;2.90;;
67640;SDS011;54434;50.096;20.082;2023-07-20T08:14:40;6.90;;;3.10;;
67640;SDS011;54434;50.096;20.082;2023-07-20T08:17:16;7.50;;;3.40;;
67640;SDS011;54434;50.096;20.082;2023-07-20T08:19:53;7.50;;;3.10;;
67640;SDS011;54434;50.096;20.082;2023-07-20T08:22:29;5.60;;;2.70;;
67640;SDS011;54434;50.096;20.082;2023-07-20T08:25:07;6.60;;;3.00;;
67640;SDS011;54434;50.096;20.082;2023-07-20T08:27:44;6.80;;;2.90;;
67640;SDS011;54434;50.096;20.082;2023-07-20T08:30:24;6.60;;;3.00;;
67640;SDS011;54434;50.096;20.082;2023-07-20T08:33:00;7.30;;;3.20;;
67640;SDS011;54434;50.096;20.082;2023-07-20T08:35:36;7.00;;;2.90;;
67640;SDS011;54434;50.096;20.082;2023-07-20T08:38:13;7.60;;;3.10;;
67640;SDS011;54434;50.096;20.082;2023-07-20T08:40:49;9.60;;;3.30;;
67640;SDS011;54434;50.096;20.082;2023-07-20T08:43:31;10.80;;;3.30;;
67640;SDS011;54434;50.096;20.082;2023-07-20T08:46:11;10.40;;;3.30;;
67640;SDS011;54434;50.096;20.082;2023-07-20T08:48:49;7.20;;;3.50;;
67640;SDS011;54434;50.096;20.082;2023-07-20T08:51:27;5.90;;;3.40;;
67640;SDS011;54434;50.096;20.082;2023-07-20T08:54:05;10.30;;;3.50;;
67640;SDS011;54434;50.096;20.082;2023-07-20T08:56:47;7.80;;;3.30;;
67640;SDS011;54434;50.096;20.082;2023-07-20T08:59:25;6.80;;;3.10;;
67640;SDS011;54434;50.096;20.082;2023-07-20T09:02:04;10.20;;;3.40;;
67640;SDS011;54434;50.096;20.082;2023-07-20T09:04:43;6.80;;;3.20;;
67640;SDS011;54434;50.096;20.082;2023-07-20T09:07:20;6.30;;;3.20;;
67640;SDS011;54434;50.096;20.082;2023-07-20T09:09:59;6.20;;;3.20;;
67640;SDS011;54434;50.096;20.082;2023-07-20T09:12:40;5.40;;;3.20;;
67640;SDS011;54434;50.096;20.082;2023-07-20T09:15:18;6.60;;;2.80;;
67640;SDS011;54434;50.096;20.082;2023-07-20T09:17:56;7.70;;;2.90;;
67640;SDS011;54434;50.096;20.082;2023-07-20T09:20:37;5.50;;;2.60;;
67640;SDS011;54434;50.096;20.082;2023-07-20T09:23:15;11.40;;;2.90;;
67640;SDS011;54434;50.096;20.082;2023-07-20T09:25:52;6.90;;;3.10;;
67640;SDS011;54434;50.096;20.082;2023-07-20T09:28:29;4.90;;;2.50;;
67640;SDS011;54434;50.096;20.082;2023-07-20T09:31:20;3.40;;;2.30;;
67640;SDS011;54434;50.096;20.082;2023-07-20T09:33:58;4.20;;;2.40;;
67640;SDS011;54434;50.096;20.082;2023-07-20T09:36:36;5.20;;;2.40;;
67640;SDS011;54434;50.096;20.082;2023-07-20T09:39:16;6.20;;;2.70;;
67640;SDS011;54434;50.096;20.082;2023-07-20T09:41:56;3.60;;;2.30;;
67640;SDS011;54434;50.096;20.082;2023-07-20T09:44:42;5.40;;;2.50;;
67640;SDS011;54434;50.096;20.082;2023-07-20T09:47:26;5.20;;;2.40;;
67640;SDS011;54434;50.096;20.082;2023-07-20T09:50:05;4.20;;;2.30;;
67640;SDS011;54434;50.096;20.082;2023-07-20T09:52:48;5.50;;;2.40;;
67640;SDS011;54434;50.096;20.082;2023-07-20T09:55:28;5.70;;;2.00;;
67640;SDS011;54434;50.096;20.082;2023-07-20T09:58:06;4.80;;;2.10;;
67640;SDS011;54434;50.096;20.082;2023-07-20T10:00:45;5.80;;;2.50;;
67640;SDS011;54434;50.096;20.082;2023-07-20T10:03:29;5.30;;;2.40;;
67640;SDS011;54434;50.096;20.082;2023-07-20T10:06:13;3.80;;;2.40;;
67640;SDS011;54434;50.096;20.082;2023-07-20T10:08:59;5.60;;;2.20;;
67640;SDS011;54434;50.096;20.082;2023-07-20T10:11:38;7.00;;;2.60;;
67640;SDS011;54434;50.096;20.082;2023-07-20T10:14:25;5.20;;;2.50;;
67640;SDS011;54434;50.096;20.082;2023-07-20T10:17:09;5.30;;;2.10;;
67640;SDS011;54434;50.096;20.082;2023-07-20T10:19:52;7.30;;;2.90;;
67640;SDS011;54434;50.096;20.082;2023-07-20T10:22:37;4.00;;;2.30;;
67640;SDS011;54434;50.096;20.082;2023-07-20T10:25:15;5.30;;;2.40;;
67640;SDS011;54434;50.096;20.082;2023-07-20T10:27:53;6.00;;;2.30;;
67640;SDS011;54434;50.096;20.082;2023-07-20T10:30:31;7.30;;;2.40;;
67640;SDS011;54434;50.096;20.082;2023-07-20T10:33:10;6.10;;;2.40;;
67640;SDS011;54434;50.096;20.082;2023-07-20T10:35:57;4.70;;;2.20;;
67640;SDS011;54434;50.096;20.082;2023-07-20T10:38:54;6.60;;;2.50;;
67640;SDS011;54434;50.096;20.082;2023-07-20T10:41:35;3.80;;;2.20;;
67640;SDS011;54434;50.096;20.082;2023-07-20T10:44:14;6.20;;;2.50;;
67640;SDS011;54434;50.096;20.082;2023-07-20T10:47:02;5.30;;;2.30;;
67640;SDS011;54434;50.096;20.082;2023-07-20T10:50:01;6.30;;;2.30;;
67640;SDS011;54434;50.096;20.082;2023-07-20T10:52:42;6.00;;;2.60;;
67640;SDS011;54434;50.096;20.082;2023-07-20T10:55:39;3.50;;;2.10;;
67640;SDS011;54434;50.096;20.082;2023-07-20T10:58:17;3.60;;;2.30;;
67640;SDS011;54434;50.096;20.082;2023-07-20T11:01:03;4.50;;;2.20;;
67640;SDS011;54434;50.096;20.082;2023-07-20T11:03:41;5.70;;;2.30;;
67640;SDS011;54434;50.096;20.082;2023-07-20T11:06:36;5.60;;;2.50;;
67640;SDS011;54434;50.096;20.082;2023-07-20T11:09:18;5.80;;;2.50;;
67640;SDS011;54434;50.096;20.082;2023-07-20T11:12:13;7.50;;;2.70;;
67640;SDS011;54434;50.096;20.082;2023-07-20T11:17:34;7.60;;;2.70;;
67640;SDS011;54434;50.096;20.082;2023-07-20T11:20:13;4.10;;;2.40;;
67640;SDS011;54434;50.096;20.082;2023-07-20T11:22:53;6.10;;;2.70;;
67640;SDS011;54434;50.096;20.082;2023-07-20T11:25:40;5.70;;;2.80;;
67640;SDS011;54434;50.096;20.082;2023-07-20T11:28:17;5.70;;;3.00;;
67640;SDS011;54434;50.096;20.082;2023-07-20T11:30:56;7.50;;;2.80;;
67640;SDS011;54434;50.096;20.082;2023-07-20T11:33:32;5.50;;;3.00;;
67640;SDS011;54434;50.096;20.082;2023-07-20T11:36:11;6.40;;;3.10;;
67640;SDS011;54434;50.096;20.082;2023-07-20T11:38:50;6.90;;;3.30;;
67640;SDS011;54434;50.096;20.082;2023-07-20T11:41:28;5.90;;;3.00;;
67640;SDS011;54434;50.096;20.082;2023-07-20T11:44:05;9.10;;;3.40;;
67640;SDS011;54434;50.096;20.082;2023-07-20T11:49:21;5.70;;;3.20;;
67640;SDS011;54434;50.096;20.082;2023-07-20T11:51:57;5.90;;;3.30;;
67640;SDS011;54434;50.096;20.082;2023-07-20T11:54:35;5.80;;;3.20;;
67640;SDS011;54434;50.096;20.082;2023-07-20T11:57:20;5.30;;;3.30;;
67640;SDS011;54434;50.096;20.082;2023-07-20T12:00:02;5.70;;;3.10;;
67640;SDS011;54434;50.096;20.082;2023-07-20T12:02:44;6.20;;;3.40;;
67640;SDS011;54434;50.096;20.082;2023-07-20T12:05:23;9.60;;;4.30;;
67640;SDS011;54434;50.096;20.082;2023-07-20T12:08:00;7.90;;;4.30;;
67640;SDS011;54434;50.096;20.082;2023-07-20T12:10:41;9.90;;;4.10;;
67640;SDS011;54434;50.096;20.082;2023-07-20T12:13:17;8.60;;;4.90;;
67640;SDS011;54434;50.096;20.082;2023-07-20T12:15:55;7.70;;;4.40;;
67640;SDS011;54434;50.096;20.082;2023-07-20T12:18:41;8.90;;;4.00;;
67640;SDS011;54434;50.096;20.082;2023-07-20T12:21:20;7.20;;;4.00;;
67640;SDS011;54434;50.096;20.082;2023-07-20T12:23:59;6.90;;;3.80;;
67640;SDS011;54434;50.096;20.082;2023-07-20T12:26:36;8.10;;;3.90;;
67640;SDS011;54434;50.096;20.082;2023-07-20T12:29:13;8.70;;;3.90;;
67640;SDS011;54434;50.096;20.082;2023-07-20T12:31:50;8.80;;;3.90;;
67640;SDS011;54434;50.096;20.082;2023-07-20T12:34:26;7.30;;;3.70;;
67640;SDS011;54434;50.096;20.082;2023-07-20T12:37:06;5.60;;;3.40;;
67640;SDS011;54434;50.096;20.082;2023-07-20T12:39:45;7.10;;;3.40;;
67640;SDS011;54434;50.096;20.082;2023-07-20T12:42:21;8.40;;;4.00;;
67640;SDS011;54434;50.096;20.082;2023-07-20T12:44:58;8.70;;;5.10;;
67640;SDS011;54434;50.096;20.082;2023-07-20T12:47:35;5.70;;;3.70;;
67640;SDS011;54434;50.096;20.082;2023-07-20T12:50:12;6.30;;;3.90;;
67640;SDS011;54434;50.096;20.082;2023-07-20T12:52:51;6.90;;;3.70;;
67640;SDS011;54434;50.096;20.082;2023-07-20T12:55:27;6.50;;;3.40;;
67640;SDS011;54434;50.096;20.082;2023-07-20T12:58:04;9.30;;;3.40;;
67640;SDS011;54434;50.096;20.082;2023-07-20T13:00:41;6.20;;;3.20;;
67640;SDS011;54434;50.096;20.082;2023-07-20T13:03:17;11.40;;;3.20;;
67640;SDS011;54434;50.096;20.082;2023-07-20T13:05:56;7.10;;;2.80;;
67640;SDS011;54434;50.096;20.082;2023-07-20T13:08:36;4.60;;;2.60;;
67640;SDS011;54434;50.096;20.082;2023-07-20T13:11:13;4.80;;;2.60;;
67640;SDS011;54434;50.096;20.082;2023-07-20T13:13:49;4.60;;;2.80;;
67640;SDS011;54434;50.096;20.082;2023-07-20T13:16:26;5.50;;;2.60;;
67640;SDS011;54434;50.096;20.082;2023-07-20T13:19:02;6.50;;;2.70;;
67640;SDS011;54434;50.096;20.082;2023-07-20T13:21:39;7.20;;;2.40;;
67640;SDS011;54434;50.096;20.082;2023-07-20T13:24:15;5.40;;;2.50;;
67640;SDS011;54434;50.096;20.082;2023-07-20T13:26:52;6.30;;;2.60;;
67640;SDS011;54434;50.096;20.082;2023-07-20T13:29:28;5.30;;;2.60;;
67640;SDS011;54434;50.096;20.082;2023-07-20T13:32:07;6.00;;;2.70;;
67640;SDS011;54434;50.096;20.082;2023-07-20T13:34:45;6.30;;;2.70;;
67640;SDS011;54434;50.096;20.082;2023-07-20T13:37:22;4.50;;;2.40;;
67640;SDS011;54434;50.096;20.082;2023-07-20T13:39:59;5.80;;;2.70;;
67640;SDS011;54434;50.096;20.082;2023-07-20T13:42:37;4.70;;;2.30;;
67640;SDS011;54434;50.096;20.082;2023-07-20T13:45:15;4.70;;;2.40;;
67640;SDS011;54434;50.096;20.082;2023-07-20T13:47:51;3.70;;;2.60;;
67640;SDS011;54434;50.096;20.082;2023-07-20T13:50:28;7.40;;;2.60;;
67640;SDS011;54434;50.096;20.082;2023-07-20T13:53:15;6.80;;;2.60;;
67640;SDS011;54434;50.096;20.082;2023-07-20T13:55:54;6.70;;;2.70;;
67640;SDS011;54434;50.096;20.082;2023-07-20T13:58:34;6.10;;;2.70;;
67640;SDS011;54434;50.096;20.082;2023-07-20T14:01:13;5.60;;;2.60;;
67640;SDS011;54434;50.096;20.082;2023-07-20T14:04:02;5.80;;;2.50;;
67640;SDS011;54434;50.096;20.082;2023-07-20T14:06:39;4.10;;;2.60;;
67640;SDS011;54434;50.096;20.082;2023-07-20T14:09:16;5.70;;;2.50;;
67640;SDS011;54434;50.096;20.082;2023-07-20T14:11:52;5.40;;;2.80;;
67640;SDS011;54434;50.096;20.082;2023-07-20T14:14:32;5.50;;;2.90;;
67640;SDS011;54434;50.096;20.082;2023-07-20T14:17:08;4.60;;;2.60;;
67640;SDS011;54434;50.096;20.082;2023-07-20T14:19:46;4.20;;;2.40;;
67640;SDS011;54434;50.096;20.082;2023-07-20T14:22:23;6.30;;;2.60;;
67640;SDS011;54434;50.096;20.082;2023-07-20T14:25:00;6.00;;;2.50;;
67640;SDS011;54434;50.096;20.082;2023-07-20T14:27:36;4.50;;;2.70;;
67640;SDS011;54434;50.096;20.082;2023-07-20T14:30:15;3.90;;;2.10;;
67640;SDS011;54434;50.096;20.082;2023-07-20T14:32:53;3.00;;;1.90;;
67640;SDS011;54434;50.096;20.082;2023-07-20T14:35:29;5.60;;;1.50;;
67640;SDS011;54434;50.096;20.082;2023-07-20T14:38:06;5.10;;;1.90;;
67640;SDS011;54434;50.096;20.082;2023-07-20T14:40:43;7.10;;;2.10;;
67640;SDS011;54434;50.096;20.082;2023-07-20T14:43:22;13.20;;;2.00;;
67640;SDS011;54434;50.096;20.082;2023-07-20T14:45:59;4.40;;;1.80;;
67640;SDS011;54434;50.096;20.082;2023-07-20T14:48:37;2.70;;;1.90;;
67640;SDS011;54434;50.096;20.082;2023-07-20T14:51:14;2.90;;;1.80;;
67640;SDS011;54434;50.096;20.082;2023-07-20T14:53:50;4.00;;;1.90;;
67640;SDS011;54434;50.096;20.082;2023-07-20T14:56:27;5.40;;;1.80;;
67640;SDS011;54434;50.096;20.082;2023-07-20T14:59:03;5.70;;;1.90;;
67640;SDS011;54434;50.096;20.082;2023-07-20T15:01:40;5.80;;;2.10;;
67640;SDS011;54434;50.096;20.082;2023-07-20T15:04:18;3.40;;;2.00;;
67640;SDS011;54434;50.096;20.082;2023-07-20T15:06:55;3.90;;;2.10;;
67640;SDS011;54434;50.096;20.082;2023-07-20T15:09:31;4.60;;;2.10;;
67640;SDS011;54434;50.096;20.082;2023-07-20T15:12:10;4.50;;;2.80;;
67640;SDS011;54434;50.096;20.082;2023-07-20T15:15:01;4.60;;;2.70;;
67640;SDS011;54434;50.096;20.082;2023-07-20T15:17:41;3.80;;;2.20;;
67640;SDS011;54434;50.096;20.082;2023-07-20T15:20:19;5.90;;;2.20;;
67640;SDS011;54434;50.096;20.082;2023-07-20T15:22:56;2.80;;;1.90;;
67640;SDS011;54434;50.096;20.082;2023-07-20T15:25:33;5.20;;;2.00;;
67640;SDS011;54434;50.096;20.082;2023-07-20T15:28:09;7.40;;;2.80;;
67640;SDS011;54434;50.096;20.082;2023-07-20T15:30:46;5.80;;;2.70;;
67640;SDS011;54434;50.096;20.082;2023-07-20T15:33:23;8.50;;;2.60;;
67640;SDS011;54434;50.096;20.082;2023-07-20T15:35:59;8.10;;;3.00;;
67640;SDS011;54434;50.096;20.082;2023-07-20T15:38:37;3.80;;;2.40;;
67640;SDS011;54434;50.096;20.082;2023-07-20T15:43:54;6.60;;;2.40;;
67640;SDS011;54434;50.096;20.082;2023-07-20T15:46:48;10.10;;;5.50;;
67640;SDS011;54434;50.096;20.082;2023-07-20T15:49:24;22.00;;;12.30;;